Time;durP1;ratioP1;P1;durP2;ratioP2;P2;SDS_P1;SDS_P2;PMS_P1;PMS_P2;Temp;Humidity;BMP_temperature;BMP_pressure;BME280_temperature;BME280_humidity;BME280_pressure;Samples;Min_cycle;Max_cycle;Signal;HPM_P1;HPM_P2
2022/05/29 00:00:03;;;;;;;3.93;1.80;;;14.20;72.30;;;;;;5058680;28;20545;-68
2022/05/29 00:02:37;;;;;;;2.67;1.53;;;14.20;72.60;;;;;;5075900;28;20580;-68
2022/05/29 00:05:03;;;;;;;1.60;1.30;;;14.20;72.20;;;;;;5068174;28;20446;-68
2022/05/29 00:07:29;;;;;;;8.53;1.30;;;14.20;72.20;;;;;;5051660;28;20231;-68
2022/05/29 00:09:54;;;;;;;3.63;1.43;;;14.10;72.20;;;;;;5067309;28;20480;-68
2022/05/29 00:12:22;;;;;;;1.87;1.33;;;14.10;72.30;;;;;;5070315;28;20223;-68
2022/05/29 00:14:49;;;;;;;3.13;1.40;;;14.10;72.20;;;;;;5067691;28;20222;-70
2022/05/29 00:17:17;;;;;;;1.53;1.20;;;14.00;72.50;;;;;;5068027;28;20981;-68
2022/05/29 00:19:43;;;;;;;2.00;1.23;;;14.00;72.30;;;;;;5068037;28;20867;-68
2022/05/29 00:22:12;;;;;;;5.80;1.97;;;13.90;73.00;;;;;;5053724;28;20923;-68
2022/05/29 00:24:38;;;;;;;2.40;1.40;;;13.80;72.50;;;;;;5066055;28;20465;-67
2022/05/29 00:27:04;;;;;;;3.90;1.67;;;13.90;73.40;;;;;;5086294;28;20479;-69
2022/05/29 00:29:30;;;;;;;1.20;1.10;;;13.90;73.30;;;;;;5073289;28;20987;-68
2022/05/29 00:31:56;;;;;;;3.57;1.40;;;13.90;73.80;;;;;;5072565;28;20249;-68
2022/05/29 00:34:22;;;;;;;2.93;1.53;;;13.90;73.50;;;;;;5073569;28;20223;-68
2022/05/29 00:36:48;;;;;;;1.60;1.50;;;13.90;73.50;;;;;;5071499;28;20468;-71
2022/05/29 00:39:16;;;;;;;3.10;1.27;;;13.90;73.40;;;;;;5056253;28;20236;-68
2022/05/29 00:41:42;;;;;;;1.57;1.37;;;13.90;73.70;;;;;;5068668;28;20805;-67
2022/05/29 00:44:14;;;;;;;1.30;1.10;;;13.90;73.70;;;;;;5067966;28;20472;-68
2022/05/29 00:47:06;;;;;;;1.70;1.57;;;13.90;73.60;;;;;;5072820;28;20999;-68
2022/05/29 00:49:34;;;;;;;1.60;1.27;;;14.00;74.00;;;;;;5064801;28;20457;-70
2022/05/29 00:52:19;;;;;;;1.70;1.60;;;13.90;73.70;;;;;;5073680;28;20484;-68
2022/05/29 00:54:53;;;;;;;2.67;1.70;;;13.90;74.00;;;;;;5064879;28;20500;-68
2022/05/29 00:57:31;;;;;;;1.13;1.00;;;14.00;73.80;;;;;;5052069;28;20466;-68
2022/05/29 01:00:05;;;;;;;2.10;1.50;;;14.00;73.60;;;;;;5053630;28;20474;-68
2022/05/29 01:02:30;;;;;;;1.47;1.30;;;13.90;73.60;;;;;;5052875;28;20516;-68
2022/05/29 01:04:57;;;;;;;4.87;1.73;;;13.90;74.40;;;;;;5065398;28;20465;-69
2022/05/29 01:07:25;;;;;;;3.13;1.60;;;13.90;74.10;;;;;;5070041;28;20241;-67
2022/05/29 01:09:51;;;;;;;2.00;1.50;;;13.90;74.30;;;;;;5057154;28;20442;-68
2022/05/29 01:12:54;;;;;;;2.77;1.70;;;13.90;74.40;;;;;;5070086;28;20460;-67
2022/05/29 01:15:54;;;;;;;2.37;1.03;;;13.90;74.50;;;;;;5066015;28;20464;-67
2022/05/29 01:18:52;;;;;;;3.53;1.47;;;13.80;74.70;;;;;;5032381;28;20458;-68
2022/05/29 01:21:25;;;;;;;2.80;1.70;;;13.80;75.00;;;;;;5057500;28;20458;-72
2022/05/29 01:24:09;;;;;;;1.73;1.40;;;13.80;74.50;;;;;;5061233;28;20464;-69
2022/05/29 01:27:10;;;;;;;7.97;1.67;;;13.80;75.10;;;;;;5061087;28;20458;-68
2022/05/29 01:29:41;;;;;;;2.80;1.30;;;13.80;75.10;;;;;;5059967;28;20447;-68
2022/05/29 01:32:13;;;;;;;3.57;1.57;;;13.80;75.20;;;;;;5063885;28;20445;-68
2022/05/29 01:34:50;;;;;;;1.50;1.20;;;13.80;75.10;;;;;;5077520;28;20443;-69
2022/05/29 01:37:36;;;;;;;1.87;1.30;;;13.80;75.20;;;;;;5058977;28;20458;-68
2022/05/29 01:40:04;;;;;;;1.70;1.30;;;13.70;75.00;;;;;;5063164;28;20463;-68
2022/05/29 01:43:02;;;;;;;4.63;2.27;;;13.80;75.50;;;;;;5063786;28;20454;-68
2022/05/29 01:45:56;;;;;;;3.17;1.37;;;13.80;75.50;;;;;;5054848;28;20537;-68
2022/05/29 01:48:37;;;;;;;1.63;1.20;;;13.70;75.70;;;;;;5057798;28;20462;-69
2022/05/29 01:51:12;;;;;;;2.20;1.40;;;13.70;75.40;;;;;;5058195;28;20544;-68
2022/05/29 01:53:45;;;;;;;5.07;1.30;;;13.70;75.60;;;;;;5078925;28;20471;-69
2022/05/29 01:56:39;;;;;;;3.17;1.60;;;13.70;75.60;;;;;;5063774;28;20536;-68
2022/05/29 01:59:14;;;;;;;1.50;1.40;;;13.70;75.50;;;;;;5065514;28;21044;-67
2022/05/29 02:01:46;;;;;;;3.80;1.50;;;13.70;75.40;;;;;;5057432;28;20477;-69
2022/05/29 02:04:18;;;;;;;7.23;2.00;;;13.70;75.50;;;;;;5059509;28;21017;-68
2022/05/29 02:09:40;;;;;;;1.70;1.60;;;13.70;75.60;;;;;;5071139;28;20488;-68
2022/05/29 02:12:08;;;;;;;1.67;1.43;;;13.70;75.60;;;;;;5068209;28;20539;-69
2022/05/29 02:14:37;;;;;;;1.00;1.00;;;13.60;75.60;;;;;;5067729;28;20461;-68
2022/05/29 02:17:08;;;;;;;2.67;1.50;;;13.50;75.70;;;;;;5077708;28;20458;-68
2022/05/29 02:19:40;;;;;;;1.27;1.10;;;13.50;76.60;;;;;;5070726;28;20458;-68
2022/05/29 02:22:08;;;;;;;3.53;1.67;;;13.40;76.70;;;;;;5073495;28;20457;-68
2022/05/29 02:24:37;;;;;;;4.20;2.90;;;13.50;76.70;;;;;;5066766;28;21044;-68
2022/05/29 02:27:15;;;;;;;2.40;1.63;;;13.40;76.70;;;;;;5065963;28;20453;-69
2022/05/29 02:29:42;;;;;;;3.07;1.50;;;13.40;76.90;;;;;;5061111;28;20474;-69
2022/05/29 02:32:26;;;;;;;2.60;1.70;;;13.30;76.90;;;;;;5069666;28;20475;-70
2022/05/29 02:35:03;;;;;;;6.80;1.40;;;13.20;76.90;;;;;;5055127;28;20446;-68
2022/05/29 02:37:35;;;;;;;5.73;1.77;;;13.20;77.20;;;;;;5059612;28;20469;-68
2022/05/29 02:40:17;;;;;;;2.10;1.30;;;13.20;77.50;;;;;;5069859;28;20485;-69
2022/05/29 02:42:51;;;;;;;1.20;1.10;;;13.10;77.40;;;;;;5068881;28;20500;-68
2022/05/29 02:45:31;;;;;;;2.40;1.60;;;13.10;77.80;;;;;;5095625;28;20517;-68
2022/05/29 02:48:06;;;;;;;3.20;1.63;;;13.10;78.70;;;;;;5069570;28;20511;-68
2022/05/29 02:50:35;;;;;;;2.43;1.40;;;13.00;78.00;;;;;;5072009;28;20448;-68
2022/05/29 02:53:08;;;;;;;1.90;1.40;;;13.00;78.00;;;;;;5072301;28;20480;-69
2022/05/29 02:55:35;;;;;;;4.20;1.60;;;13.00;78.00;;;;;;5042705;28;20458;-68
2022/05/29 02:58:04;;;;;;;3.43;1.60;;;13.00;78.10;;;;;;5076547;28;20991;-68
2022/05/29 03:00:38;;;;;;;6.53;1.40;;;12.90;78.50;;;;;;5073657;28;21042;-68
2022/05/29 03:03:33;;;;;;;2.73;1.57;;;12.90;78.70;;;;;;5072569;28;21239;-68
2022/05/29 03:06:11;;;;;;;2.90;1.73;;;12.90;79.20;;;;;;5073455;28;20458;-68
2022/05/29 03:08:37;;;;;;;3.50;1.53;;;12.90;79.50;;;;;;5061745;28;20465;-67
2022/05/29 03:11:13;;;;;;;1.47;1.37;;;12.90;79.40;;;;;;5051538;28;20455;-68
2022/05/29 03:13:59;;;;;;;3.00;1.53;;;12.80;79.70;;;;;;5087188;28;20210;-69
2022/05/29 03:16:50;;;;;;;4.53;1.40;;;12.80;79.90;;;;;;5067682;28;20540;-68
2022/05/29 03:19:33;;;;;;;2.03;1.50;;;12.70;80.00;;;;;;5068565;28;21037;-69
2022/05/29 03:22:23;;;;;;;1.47;1.27;;;12.70;80.20;;;;;;5070612;28;20501;-68
2022/05/29 03:25:03;;;;;;;2.40;1.60;;;12.70;80.50;;;;;;5072473;28;20449;-68
2022/05/29 03:27:28;;;;;;;4.20;1.53;;;12.70;80.70;;;;;;5068442;28;20458;-68
2022/05/29 03:30:09;;;;;;;5.70;1.73;;;12.70;80.80;;;;;;5066432;28;20457;-68
2022/05/29 03:32:36;;;;;;;7.63;1.73;;;12.70;80.70;;;;;;5074154;28;20222;-68
2022/05/29 03:35:19;;;;;;;3.27;1.87;;;12.70;80.80;;;;;;5062824;28;20450;-69
2022/05/29 03:37:45;;;;;;;1.77;1.20;;;12.70;80.90;;;;;;5074663;28;20524;-68
2022/05/29 03:40:12;;;;;;;2.80;1.43;;;12.70;80.90;;;;;;5061845;28;20536;-68
2022/05/29 03:42:38;;;;;;;5.53;1.83;;;12.70;81.40;;;;;;5054883;28;20322;-68
2022/05/29 03:45:04;;;;;;;1.50;1.30;;;12.60;81.20;;;;;;5079912;28;20890;-68
2022/05/29 03:47:29;;;;;;;2.03;1.60;;;12.60;81.40;;;;;;5057605;28;20228;-68
2022/05/29 03:49:55;;;;;;;4.87;1.40;;;12.60;81.20;;;;;;5056118;28;20514;-69
2022/05/29 03:52:21;;;;;;;4.60;1.50;;;12.60;81.20;;;;;;5074775;28;20219;-68
2022/05/29 03:54:46;;;;;;;2.00;1.37;;;12.60;81.30;;;;;;5061917;28;20249;-68
2022/05/29 03:57:12;;;;;;;1.67;1.37;;;12.60;81.40;;;;;;5063575;28;20652;-71
2022/05/29 03:59:38;;;;;;;3.77;1.60;;;12.60;81.70;;;;;;5048571;28;20584;-69
2022/05/29 04:02:03;;;;;;;2.20;1.40;;;12.60;81.60;;;;;;5060292;28;20332;-69
2022/05/29 04:04:29;;;;;;;1.50;1.40;;;12.60;81.80;;;;;;5039594;28;20227;-68
2022/05/29 04:06:55;;;;;;;4.60;1.83;;;12.60;81.70;;;;;;5063173;28;20223;-69
2022/05/29 04:12:05;;;;;;;3.90;1.33;;;12.60;81.90;;;;;;5057085;28;20227;-68
2022/05/29 04:14:33;;;;;;;5.90;1.57;;;12.50;82.00;;;;;;5054038;28;20514;-68
2022/05/29 04:17:00;;;;;;;1.70;1.33;;;12.50;81.90;;;;;;5044427;28;20450;-69
2022/05/29 04:19:25;;;;;;;3.20;1.20;;;12.50;82.10;;;;;;5061060;28;20474;-68
2022/05/29 04:21:51;;;;;;;3.63;1.30;;;12.40;82.20;;;;;;5045832;28;20524;-68
2022/05/29 04:24:20;;;;;;;1.20;1.10;;;12.40;82.10;;;;;;5059776;28;20234;-68
2022/05/29 04:26:49;;;;;;;2.17;1.40;;;12.40;82.20;;;;;;5043250;28;20215;-67
2022/05/29 04:29:16;;;;;;;2.63;1.50;;;12.40;82.60;;;;;;5042756;28;20508;-69
2022/05/29 04:32:59;;;;;;;1.67;1.57;;;12.40;83.00;;;;;;5063299;28;20454;-69
2022/05/29 04:34:28;;;;;;;2.53;1.03;;;12.40;83.10;;;;;;5061623;28;20488;-69
2022/05/29 04:36:54;;;;;;;2.23;1.37;;;12.30;83.40;;;;;;5058879;28;20563;-68
2022/05/29 04:39:19;;;;;;;1.97;1.30;;;12.30;83.20;;;;;;5061234;28;20235;-68
2022/05/29 04:41:45;;;;;;;2.20;1.23;;;12.40;83.30;;;;;;5060938;28;20251;-68
2022/05/29 04:44:11;;;;;;;1.60;1.23;;;12.40;83.70;;;;;;5060585;28;20258;-69
2022/05/29 04:46:36;;;;;;;1.50;1.20;;;12.40;83.70;;;;;;5055365;28;20219;-68
2022/05/29 04:49:02;;;;;;;2.50;1.07;;;12.40;84.30;;;;;;5060351;28;20254;-68
2022/05/29 04:51:28;;;;;;;1.50;1.40;;;12.30;84.20;;;;;;5060071;28;20745;-68
2022/05/29 04:53:54;;;;;;;5.07;1.30;;;12.20;84.00;;;;;;5059130;28;20243;-68
2022/05/29 04:56:19;;;;;;;2.03;1.23;;;12.20;84.40;;;;;;5059874;28;20726;-69
2022/05/29 04:58:45;;;;;;;4.33;1.20;;;12.20;84.60;;;;;;5061248;28;20287;-68
2022/05/29 05:01:11;;;;;;;1.20;1.10;;;12.20;84.60;;;;;;5063639;28;20227;-68
2022/05/29 05:03:36;;;;;;;3.27;1.37;;;12.20;84.60;;;;;;5062705;28;20316;-68
2022/05/29 05:06:02;;;;;;;2.80;1.17;;;12.10;85.00;;;;;;5055594;28;20226;-68
2022/05/29 05:08:28;;;;;;;2.07;0.97;;;12.10;84.90;;;;;;5075978;28;20676;-68
2022/05/29 05:10:54;;;;;;;1.83;1.30;;;12.10;85.10;;;;;;5061885;28;20449;-68
2022/05/29 05:13:21;;;;;;;1.73;1.30;;;12.20;85.20;;;;;;5060103;28;20277;-69
2022/05/29 05:15:47;;;;;;;3.00;1.10;;;12.20;85.50;;;;;;5059551;28;20486;-68
2022/05/29 05:18:13;;;;;;;1.30;1.20;;;12.20;85.60;;;;;;5060361;28;20474;-70
2022/05/29 05:20:39;;;;;;;1.30;1.20;;;12.10;85.50;;;;;;5069861;28;20690;-68
2022/05/29 05:23:05;;;;;;;3.93;1.60;;;12.10;85.30;;;;;;5075755;28;20232;-68
2022/05/29 05:25:32;;;;;;;7.30;1.90;;;12.00;85.10;;;;;;5063484;28;20472;-68
2022/05/29 05:27:58;;;;;;;4.43;1.50;;;12.00;85.60;;;;;;5064954;28;20926;-69
2022/05/29 05:30:24;;;;;;;1.43;1.33;;;12.00;85.80;;;;;;5061399;28;20540;-67
2022/05/29 05:32:50;;;;;;;1.60;1.20;;;12.00;85.50;;;;;;5063840;28;20223;-69
2022/05/29 05:35:16;;;;;;;2.00;1.30;;;12.00;85.80;;;;;;5051370;28;20465;-67
2022/05/29 05:37:42;;;;;;;1.97;1.30;;;12.00;86.20;;;;;;5081507;28;20234;-67
2022/05/29 05:40:13;;;;;;;2.47;1.23;;;12.00;86.00;;;;;;5065281;28;20248;-68
2022/05/29 05:42:39;;;;;;;1.00;1.00;;;11.90;86.20;;;;;;5062400;28;20484;-69
2022/05/29 05:45:07;;;;;;;6.63;3.03;;;12.00;86.60;;;;;;5072294;28;21041;-70
2022/05/29 05:47:34;;;;;;;1.23;1.13;;;12.00;86.80;;;;;;5078888;28;20219;-69
2022/05/29 05:50:00;;;;;;;2.07;1.40;;;12.10;86.60;;;;;;5067590;28;20453;-69
2022/05/29 05:52:26;;;;;;;1.63;1.00;;;12.10;86.90;;;;;;5064446;28;21023;-68
2022/05/29 05:54:51;;;;;;;1.83;0.97;;;12.10;87.00;;;;;;5064780;28;21004;-67
2022/05/29 05:57:20;;;;;;;2.10;0.90;;;12.20;87.20;;;;;;5065335;28;20474;-70
2022/05/29 05:59:47;;;;;;;2.80;1.20;;;12.20;87.60;;;;;;5058147;28;20240;-68
2022/05/29 06:02:13;;;;;;;2.40;1.20;;;12.20;87.50;;;;;;5061803;28;20451;-67
2022/05/29 06:04:40;;;;;;;7.03;1.37;;;12.30;87.80;;;;;;5077497;28;20451;-68
2022/05/29 06:07:06;;;;;;;1.93;1.17;;;12.30;87.80;;;;;;5075975;28;20462;-68
2022/05/29 06:09:35;;;;;;;1.37;1.27;;;12.30;88.30;;;;;;5059779;28;20573;-68
2022/05/29 06:12:03;;;;;;;1.80;1.10;;;12.40;88.50;;;;;;5067734;28;20458;-68
2022/05/29 06:14:29;;;;;;;2.13;1.20;;;12.40;88.10;;;;;;5058547;28;20462;-68
2022/05/29 06:16:58;;;;;;;1.97;1.67;;;12.50;88.20;;;;;;5062107;28;20458;-68
2022/05/29 06:19:24;;;;;;;2.70;1.20;;;12.50;87.60;;;;;;5061296;28;20481;-68
2022/05/29 06:21:49;;;;;;;2.23;1.27;;;12.50;87.80;;;;;;5067896;28;20450;-68
2022/05/29 06:24:15;;;;;;;1.53;1.27;;;12.50;86.80;;;;;;5063626;28;20220;-68
2022/05/29 06:26:40;;;;;;;3.07;1.40;;;12.50;88.20;;;;;;5076626;28;20687;-69
2022/05/29 06:29:07;;;;;;;2.90;1.13;;;12.60;87.60;;;;;;5058623;28;20226;-67
2022/05/29 06:31:33;;;;;;;1.50;1.40;;;12.70;87.80;;;;;;5061991;28;20226;-69
2022/05/29 06:33:59;;;;;;;1.03;0.93;;;12.70;88.30;;;;;;5061106;28;20516;-70
2022/05/29 06:36:28;;;;;;;3.30;1.60;;;12.80;88.30;;;;;;5059697;28;20249;-67
2022/05/29 06:38:55;;;;;;;4.20;1.10;;;12.90;87.90;;;;;;5058843;28;20311;-68
2022/05/29 06:41:23;;;;;;;3.77;1.47;;;12.90;87.70;;;;;;5064610;28;20461;-70
2022/05/29 06:43:52;;;;;;;1.90;1.40;;;12.90;87.00;;;;;;5051308;28;20912;-71
2022/05/29 06:46:19;;;;;;;2.00;1.50;;;12.90;87.60;;;;;;5059544;28;20648;-68
2022/05/29 06:48:45;;;;;;;1.67;1.40;;;13.00;87.60;;;;;;5067891;28;20529;-68
2022/05/29 06:51:21;;;;;;;2.37;1.20;;;13.10;88.10;;;;;;5066041;28;20487;-68
2022/05/29 06:53:49;;;;;;;2.50;1.23;;;13.10;87.90;;;;;;5062362;28;20454;-69
2022/05/29 06:56:15;;;;;;;2.10;1.37;;;13.20;88.10;;;;;;5059792;28;20486;-69
2022/05/29 06:58:41;;;;;;;1.97;1.53;;;13.20;87.90;;;;;;5061212;28;20977;-68
2022/05/29 07:07:01;;;;;;;1.20;1.10;;;13.40;87.20;;;;;;5063246;28;20454;-69
2022/05/29 07:09:32;;;;;;;4.60;1.60;;;13.40;87.00;;;;;;5055659;28;20504;-68
2022/05/29 07:12:09;;;;;;;1.87;1.30;;;13.50;86.70;;;;;;5080742;28;20455;-68
2022/05/29 07:14:51;;;;;;;4.53;1.30;;;13.60;87.00;;;;;;5064225;28;20465;-68
2022/05/29 07:17:18;;;;;;;2.20;1.27;;;13.60;86.30;;;;;;5068854;28;20458;-69
2022/05/29 07:19:45;;;;;;;1.57;1.20;;;13.70;86.10;;;;;;5050212;28;20501;-69
2022/05/29 07:22:11;;;;;;;4.93;1.30;;;13.70;85.70;;;;;;5050202;28;20899;-71
2022/05/29 07:24:38;;;;;;;1.50;1.40;;;13.80;86.50;;;;;;5059791;28;20527;-67
2022/05/29 07:27:05;;;;;;;2.60;1.20;;;13.90;85.60;;;;;;5079845;28;20475;-69
2022/05/29 07:29:31;;;;;;;1.10;0.93;;;14.00;86.70;;;;;;5068350;28;20514;-69
2022/05/29 07:31:57;;;;;;;1.00;1.00;;;14.00;86.00;;;;;;5063717;28;20453;-67
2022/05/29 07:34:24;;;;;;;1.20;1.10;;;14.10;85.60;;;;;;5053878;28;20226;-69
2022/05/29 07:36:51;;;;;;;1.33;1.20;;;14.20;85.20;;;;;;5067609;28;20242;-68
2022/05/29 07:39:18;;;;;;;1.73;1.23;;;14.10;83.90;;;;;;5069410;28;20557;-70
2022/05/29 07:44:29;;;;;;;0.83;0.70;;;14.30;84.60;;;;;;5070531;28;21055;-67
2022/05/29 07:46:56;;;;;;;2.97;1.27;;;14.40;85.10;;;;;;5073129;28;20452;-71
2022/05/29 07:49:22;;;;;;;5.03;1.23;;;14.50;84.30;;;;;;5063052;28;21404;-68
2022/05/29 07:51:48;;;;;;;2.30;1.17;;;14.50;83.10;;;;;;5073313;28;21001;-68
2022/05/29 07:54:14;;;;;;;1.50;1.30;;;14.50;83.80;;;;;;5072322;28;20984;-69
2022/05/29 07:56:40;;;;;;;3.70;2.17;;;14.60;84.60;;;;;;5068182;28;20461;-73
2022/05/29 07:59:06;;;;;;;1.30;1.20;;;14.70;84.30;;;;;;5079032;28;20222;-68
2022/05/29 08:01:32;;;;;;;1.93;1.17;;;14.80;85.00;;;;;;5072099;28;20215;-68
2022/05/29 08:03:58;;;;;;;4.47;1.53;;;14.90;85.40;;;;;;5069004;28;20296;-69
2022/05/29 08:06:24;;;;;;;1.17;1.07;;;15.10;83.60;;;;;;5071709;28;20517;-68
2022/05/29 08:08:49;;;;;;;4.03;1.80;;;15.20;83.90;;;;;;5070911;28;20215;-67
2022/05/29 08:11:17;;;;;;;7.07;1.83;;;15.20;81.70;;;;;;5066319;28;20496;-68
2022/05/29 08:13:44;;;;;;;4.20;1.60;;;15.10;80.50;;;;;;5063138;28;20230;-68
2022/05/29 08:16:11;;;;;;;2.17;1.20;;;15.10;81.20;;;;;;5055428;28;20493;-68
2022/05/29 08:18:36;;;;;;;2.00;1.30;;;15.20;82.00;;;;;;5048098;28;20487;-69
2022/05/29 08:21:02;;;;;;;2.17;1.33;;;15.30;80.90;;;;;;5068512;28;20477;-69
2022/05/29 08:23:28;;;;;;;2.60;1.30;;;15.30;80.40;;;;;;5086365;28;20226;-69
2022/05/29 08:31:27;;;;;;;7.70;2.70;;;15.30;79.00;;;;;;5064662;28;20461;-68
2022/05/29 08:33:53;;;;;;;6.70;2.80;;;15.30;79.70;;;;;;5064763;28;20811;-69
2022/05/29 08:36:25;;;;;;;5.43;2.57;;;15.30;79.00;;;;;;5069765;28;20223;-69
2022/05/29 08:38:54;;;;;;;8.07;2.60;;;15.30;80.10;;;;;;5073531;28;20441;-67
2022/05/29 08:41:48;;;;;;;7.97;1.97;;;15.30;78.30;;;;;;5071512;28;20445;-69
2022/05/29 08:44:37;;;;;;;2.00;1.47;;;15.30;78.80;;;;;;5064920;28;20473;-67
2022/05/29 08:47:04;;;;;;;2.63;1.63;;;15.30;77.10;;;;;;5067364;28;20532;-68
2022/05/29 08:49:42;;;;;;;1.60;1.40;;;15.30;78.30;;;;;;5086508;28;20989;-67
2022/05/29 08:52:20;;;;;;;4.83;2.00;;;15.40;78.00;;;;;;5071794;28;20540;-67
2022/05/29 08:54:58;;;;;;;3.40;1.80;;;15.50;77.00;;;;;;5072760;28;20860;-67
2022/05/29 08:57:41;;;;;;;2.17;1.60;;;15.70;77.90;;;;;;5080644;28;20451;-68
2022/05/29 09:00:27;;;;;;;6.73;1.80;;;15.70;76.10;;;;;;5072299;28;20469;-68
2022/05/29 09:03:04;;;;;;;2.17;1.40;;;15.70;75.50;;;;;;5048212;28;20536;-68
2022/05/29 09:05:48;;;;;;;1.80;1.60;;;15.80;76.60;;;;;;5069589;28;20456;-68
2022/05/29 09:08:23;;;;;;;4.60;1.70;;;15.90;76.20;;;;;;5061138;28;20463;-68
2022/05/29 09:10:55;;;;;;;2.20;1.27;;;16.00;76.50;;;;;;5071327;28;20457;-69
2022/05/29 09:13:44;;;;;;;1.60;1.50;;;16.00;75.40;;;;;;5071486;28;20469;-69
2022/05/29 09:16:14;;;;;;;3.03;1.67;;;16.00;75.60;;;;;;5071245;28;21028;-69
2022/05/29 09:18:43;;;;;;;1.60;1.50;;;16.10;76.30;;;;;;5072534;28;20965;-68
2022/05/29 09:21:10;;;;;;;2.40;1.30;;;16.10;74.60;;;;;;5071215;28;21030;-69
2022/05/29 09:24:00;;;;;;;1.60;1.50;;;16.00;75.30;;;;;;5070038;28;20453;-69
2022/05/29 09:26:32;;;;;;;1.87;1.50;;;16.10;75.00;;;;;;5068180;28;20826;-69
2022/05/29 09:28:58;;;;;;;3.73;1.70;;;16.20;75.10;;;;;;5069633;28;20529;-68
2022/05/29 09:31:25;;;;;;;1.77;1.67;;;16.20;74.50;;;;;;5071290;28;20477;-69
2022/05/29 09:33:51;;;;;;;2.10;1.30;;;16.20;75.00;;;;;;5066384;28;20517;-68
2022/05/29 09:36:17;;;;;;;3.13;1.60;;;16.00;73.90;;;;;;5076277;28;20918;-68
2022/05/29 09:38:48;;;;;;;2.30;1.40;;;16.00;76.20;;;;;;5070663;28;20481;-68
2022/05/29 09:41:41;;;;;;;1.70;1.30;;;16.10;74.70;;;;;;5053913;28;20212;-67
2022/05/29 09:44:18;;;;;;;2.60;1.17;;;16.20;74.50;;;;;;5066018;28;20476;-69
2022/05/29 09:46:55;;;;;;;1.37;1.17;;;16.30;75.00;;;;;;5068837;28;20453;-69
2022/05/29 09:49:42;;;;;;;3.50;1.77;;;16.50;74.00;;;;;;5068113;28;20515;-68
2022/05/29 09:52:13;;;;;;;2.40;1.27;;;16.50;74.40;;;;;;5071709;28;20457;-69
2022/05/29 09:54:45;;;;;;;1.80;1.47;;;16.60;74.50;;;;;;5072116;28;20454;-69
2022/05/29 09:57:25;;;;;;;1.20;1.10;;;16.80;72.80;;;;;;5070610;28;20449;-68
2022/05/29 09:59:59;;;;;;;3.80;1.10;;;16.90;74.20;;;;;;5070432;28;20480;-68
2022/05/29 10:02:35;;;;;;;2.37;1.53;;;16.90;73.00;;;;;;5074642;28;20876;-68
2022/05/29 10:05:01;;;;;;;0.90;0.80;;;17.00;70.60;;;;;;5070743;28;20484;-68
2022/05/29 10:07:32;;;;;;;1.13;1.07;;;17.00;71.60;;;;;;5076671;28;20493;-69
2022/05/29 10:10:08;;;;;;;1.73;1.13;;;17.10;69.90;;;;;;5064455;28;20484;-69
2022/05/29 10:12:46;;;;;;;2.93;1.40;;;17.10;67.70;;;;;;5071953;28;20977;-68
2022/05/29 10:15:24;;;;;;;1.80;1.23;;;17.00;66.10;;;;;;5064117;28;20461;-68
2022/05/29 10:17:50;;;;;;;1.80;1.50;;;17.10;66.60;;;;;;5063708;28;20954;-67
2022/05/29 10:20:35;;;;;;;1.40;1.30;;;17.10;67.20;;;;;;5057906;28;20484;-70
2022/05/29 10:23:05;;;;;;;3.77;1.17;;;17.20;66.70;;;;;;5066886;28;20476;-69
2022/05/29 10:25:38;;;;;;;1.10;1.00;;;17.20;65.60;;;;;;5061851;28;20476;-70
2022/05/29 10:28:15;;;;;;;1.80;1.33;;;17.30;67.60;;;;;;5067548;28;20464;-68
2022/05/29 10:31:21;;;;;;;1.50;1.40;;;17.50;67.80;;;;;;5068140;28;20456;-68
2022/05/29 10:34:03;;;;;;;1.57;1.20;;;17.60;66.10;;;;;;5053021;28;20453;-69
2022/05/29 10:36:29;;;;;;;1.57;1.33;;;17.50;66.60;;;;;;5063544;28;20462;-69
2022/05/29 10:39:12;;;;;;;2.13;1.70;;;17.40;66.10;;;;;;5066913;28;20988;-68
2022/05/29 10:41:41;;;;;;;1.60;1.50;;;17.50;67.40;;;;;;5077702;28;20456;-69
2022/05/29 10:44:10;;;;;;;2.10;1.90;;;17.60;66.30;;;;;;5069994;28;20464;-67
2022/05/29 10:46:39;;;;;;;2.00;1.83;;;17.60;66.40;;;;;;5067682;28;20458;-69
2022/05/29 10:49:17;;;;;;;2.60;1.50;;;17.70;65.00;;;;;;5069385;28;20458;-67
2022/05/29 10:52:10;;;;;;;2.30;1.90;;;17.70;65.80;;;;;;5068809;28;20539;-71
2022/05/29 10:54:44;;;;;;;4.00;3.70;;;17.80;68.60;;;;;;5092571;28;20453;-67
2022/05/29 10:57:38;;;;;;;8.60;6.60;;;17.70;63.90;;;;;;5070606;28;20536;-68
2022/05/29 11:00:28;;;;;;;4.70;4.30;;;17.70;65.70;;;;;;5067193;28;20469;-69
2022/05/29 11:03:18;;;;;;;3.57;3.27;;;17.60;65.10;;;;;;5062674;28;20502;-68
2022/05/29 11:06:02;;;;;;;4.83;3.17;;;17.60;64.90;;;;;;5062488;28;20454;-69
2022/05/29 11:08:54;;;;;;;3.43;2.63;;;17.60;64.90;;;;;;5064495;28;20500;-69
2022/05/29 11:11:37;;;;;;;2.20;1.90;;;17.70;64.10;;;;;;5067544;28;20957;-69
2022/05/29 11:14:25;;;;;;;1.70;1.60;;;17.70;63.60;;;;;;5068908;28;20853;-68
2022/05/29 11:17:00;;;;;;;3.20;1.60;;;17.80;64.30;;;;;;5082535;28;21057;-68
2022/05/29 11:19:46;;;;;;;2.80;1.73;;;17.80;64.00;;;;;;5062187;28;20466;-68
2022/05/29 11:22:16;;;;;;;1.30;1.20;;;17.90;63.30;;;;;;5058866;28;20457;-69
2022/05/29 11:24:54;;;;;;;3.60;1.17;;;17.90;63.30;;;;;;5072245;28;20449;-69
2022/05/29 11:27:28;;;;;;;4.53;1.63;;;18.00;64.30;;;;;;5062299;28;20823;-69
2022/05/29 11:30:09;;;;;;;3.23;1.77;;;18.10;64.00;;;;;;5051473;28;20959;-69
2022/05/29 11:32:43;;;;;;;1.50;1.40;;;18.10;63.70;;;;;;5092669;28;20470;-69
2022/05/29 11:35:40;;;;;;;1.93;1.80;;;17.80;62.70;;;;;;5076661;28;20448;-69
2022/05/29 11:38:41;;;;;;;2.37;1.60;;;17.80;63.80;;;;;;5065055;28;20548;-70
2022/05/29 11:41:39;;;;;;;1.20;1.10;;;17.80;63.50;;;;;;5065203;28;20781;-68
2022/05/29 11:44:18;;;;;;;2.83;1.60;;;17.80;62.60;;;;;;5071649;28;20564;-69
2022/05/29 11:52:39;;;;;;;1.80;1.70;;;17.70;63.40;;;;;;5063558;28;20465;-69
2022/05/29 11:55:07;;;;;;;1.60;1.50;;;17.80;63.90;;;;;;5062315;28;20467;-70
2022/05/29 11:57:51;;;;;;;1.47;1.37;;;17.80;63.60;;;;;;5066820;28;20445;-69
2022/05/29 12:00:39;;;;;;;1.43;1.33;;;18.00;64.20;;;;;;5067797;28;20489;-69
2022/05/29 12:03:43;;;;;;;1.83;1.10;;;18.20;64.60;;;;;;5064292;28;20458;-68
2022/05/29 12:06:29;;;;;;;1.77;1.67;;;18.30;62.40;;;;;;5065205;28;20548;-69
2022/05/29 12:09:07;;;;;;;1.10;1.10;;;18.40;63.20;;;;;;5064209;28;20825;-68
2022/05/29 12:12:01;;;;;;;2.00;1.30;;;18.50;62.90;;;;;;5063420;28;20911;-70
2022/05/29 12:14:27;;;;;;;1.50;1.40;;;18.50;62.20;;;;;;5064472;28;20496;-71
2022/05/29 12:17:00;;;;;;;1.60;1.50;;;18.60;64.10;;;;;;5062652;28;20467;-68
2022/05/29 12:19:41;;;;;;;1.53;1.43;;;18.80;64.20;;;;;;5069471;28;20477;-66
2022/05/29 12:22:09;;;;;;;1.70;1.60;;;19.10;65.40;;;;;;5060017;28;20816;-70
2022/05/29 12:24:49;;;;;;;1.43;1.20;;;19.00;61.70;;;;;;5069130;28;20449;-69
2022/05/29 12:27:21;;;;;;;2.07;1.20;;;18.90;63.10;;;;;;5075761;28;20440;-68
2022/05/29 12:29:52;;;;;;;1.57;1.30;;;19.00;63.70;;;;;;5070630;28;20457;-69
2022/05/29 12:32:23;;;;;;;1.50;1.40;;;19.10;63.80;;;;;;5087440;28;20520;-68
2022/05/29 12:34:54;;;;;;;1.73;1.20;;;19.10;63.50;;;;;;5072831;28;20828;-70
2022/05/29 12:37:43;;;;;;;1.40;1.30;;;19.20;63.00;;;;;;5076984;28;20521;-67
2022/05/29 12:40:46;;;;;;;1.50;1.23;;;19.30;63.30;;;;;;5049861;28;20477;-68
2022/05/29 12:43:18;;;;;;;1.43;1.33;;;19.20;62.70;;;;;;5068115;28;20960;-68
2022/05/29 12:46:01;;;;;;;2.00;1.50;;;19.20;62.90;;;;;;5072440;28;20495;-69
2022/05/29 12:49:05;;;;;;;1.40;1.30;;;19.50;63.40;;;;;;5061669;28;20458;-69
2022/05/29 12:51:58;;;;;;;1.47;1.37;;;19.60;64.00;;;;;;5063358;28;20453;-68
2022/05/29 12:54:52;;;;;;;1.30;1.30;;;19.80;63.70;;;;;;5066259;28;20486;-70
2022/05/29 12:57:54;;;;;;;1.50;1.40;;;20.00;62.70;;;;;;5071744;28;20473;-72
2022/05/29 13:01:03;;;;;;;1.33;1.30;;;20.20;61.90;;;;;;5067037;28;20523;-70
2022/05/29 13:03:59;;;;;;;1.50;1.40;;;20.20;62.60;;;;;;5071184;28;20469;-68
2022/05/29 13:06:40;;;;;;;3.20;1.23;;;20.30;62.20;;;;;;5069807;28;20454;-68
2022/05/29 13:09:11;;;;;;;1.43;1.33;;;20.50;61.10;;;;;;5065062;28;20463;-70
2022/05/29 13:11:46;;;;;;;1.40;1.30;;;20.70;61.00;;;;;;5070475;28;20537;-68
2022/05/29 13:14:16;;;;;;;2.13;1.30;;;20.70;61.90;;;;;;5061454;28;20538;-70
2022/05/29 13:16:44;;;;;;;2.80;1.73;;;20.70;61.80;;;;;;5067122;28;20454;-68
2022/05/29 13:19:21;;;;;;;1.30;1.20;;;20.50;60.90;;;;;;5066763;28;20527;-68
2022/05/29 13:22:00;;;;;;;1.47;1.40;;;20.40;61.30;;;;;;5070408;28;20478;-69
2022/05/29 13:24:36;;;;;;;1.17;1.13;;;20.10;60.50;;;;;;5076647;28;20947;-69
2022/05/29 13:27:14;;;;;;;3.73;1.60;;;20.00;60.90;;;;;;5062707;28;20448;-68
2022/05/29 13:29:58;;;;;;;1.40;1.30;;;20.00;61.50;;;;;;5072816;28;20547;-68
2022/05/29 13:32:31;;;;;;;1.90;1.70;;;20.00;61.70;;;;;;5071784;28;20453;-67
2022/05/29 13:35:03;;;;;;;2.17;1.63;;;20.00;61.20;;;;;;5079891;28;20959;-69
2022/05/29 13:37:55;;;;;;;1.70;1.60;;;20.10;63.30;;;;;;5069848;28;20544;-69
2022/05/29 13:40:21;;;;;;;1.53;1.43;;;20.10;61.70;;;;;;5069644;28;20851;-69
2022/05/29 13:42:52;;;;;;;2.30;1.57;;;20.40;62.20;;;;;;5069209;28;20449;-69
2022/05/29 13:45:24;;;;;;;2.00;1.90;;;20.10;61.50;;;;;;5063430;28;20715;-66